Time;durP1;ratioP1;P1;durP2;ratioP2;P2;SDS_P1;SDS_P2;PMS_P1;PMS_P2;Temp;Humidity;BMP_temperature;BMP_pressure;BME280_temperature;BME280_humidity;BME280_pressure;Samples;Min_cycle;Max_cycle;Signal;HPM_P1;HPM_P2
2022/07/09 00:01:03;;;;;;;;;;;15.70;99.90;;;;;;5073537;28;20088;-67
2022/07/09 00:03:31;;;;;;;;;;;15.70;99.90;;;;;;5084928;28;19927;-67
2022/07/09 00:05:58;;;;;;;;;;;15.60;99.90;;;;;;5085448;28;19967;-67
2022/07/09 00:08:25;;;;;;;;;;;15.60;99.90;;;;;;5084072;28;19976;-67
2022/07/09 00:10:51;;;;;;;;;;;15.50;99.90;;;;;;5081769;28;19927;-67
2022/07/09 00:13:18;;;;;;;;;;;15.50;99.90;;;;;;5064321;28;20268;-67
2022/07/09 00:15:45;;;;;;;;;;;15.50;99.90;;;;;;5072533;28;20204;-67
2022/07/09 00:18:11;;;;;;;;;;;15.50;99.90;;;;;;5084628;28;19980;-67
2022/07/09 00:20:39;;;;;;;;;;;15.50;99.90;;;;;;5084758;28;19991;-67
2022/07/09 00:23:06;;;;;;;;;;;15.50;99.90;;;;;;5084092;28;20207;-67
2022/07/09 00:25:34;;;;;;;;;;;15.50;99.90;;;;;;5082106;28;19951;-67
2022/07/09 00:28:00;;;;;;;;;;;15.50;99.90;;;;;;5084354;28;19927;-67
2022/07/09 00:30:27;;;;;;;;;;;15.50;99.90;;;;;;5083902;28;19987;-67
2022/07/09 00:32:54;;;;;;;;;;;15.50;99.90;;;;;;5084160;28;19952;-67
2022/07/09 00:35:20;;;;;;;;;;;15.60;99.90;;;;;;5084518;28;19920;-67
2022/07/09 00:37:48;;;;;;;;;;;15.50;99.90;;;;;;5084531;28;19958;-67
2022/07/09 00:40:15;;;;;;;;;;;15.60;99.90;;;;;;5084599;28;19921;-67
2022/07/09 00:42:42;;;;;;;;;;;15.50;99.90;;;;;;5083732;28;19921;-67
2022/07/09 00:45:08;;;;;;;;;;;15.50;99.90;;;;;;5084281;28;19952;-67
2022/07/09 00:47:35;;;;;;;;;;;15.40;99.90;;;;;;5084500;28;19955;-67
2022/07/09 00:50:02;;;;;;;;;;;15.30;99.90;;;;;;5084256;28;19920;-67
2022/07/09 00:52:31;;;;;;;;;;;15.30;99.90;;;;;;5083490;28;20129;-67
2022/07/09 00:55:00;;;;;;;;;;;15.30;99.90;;;;;;5083904;28;20240;-67
2022/07/09 00:57:27;;;;;;;;;;;15.20;99.90;;;;;;5083900;28;19988;-67
2022/07/09 00:59:54;;;;;;;;;;;15.30;99.90;;;;;;5083132;28;19963;-67
2022/07/09 01:02:22;;;;;;;;;;;15.20;99.90;;;;;;5083266;28;19933;-67
2022/07/09 01:04:49;;;;;;;;;;;15.30;99.90;;;;;;5084317;28;19921;-67
2022/07/09 01:07:15;;;;;;;;;;;15.30;99.90;;;;;;5083793;28;19928;-67
2022/07/09 01:09:42;;;;;;;;;;;15.30;99.90;;;;;;5083410;28;19955;-68
2022/07/09 01:12:10;;;;;;;;;;;15.40;99.90;;;;;;5082449;28;19927;-67
2022/07/09 01:14:37;;;;;;;;;;;15.40;99.90;;;;;;5082970;28;19943;-67
2022/07/09 01:17:05;;;;;;;;;;;15.40;99.90;;;;;;5083493;28;19920;-67
2022/07/09 01:19:33;;;;;;;;;;;15.40;99.90;;;;;;5083502;28;19951;-67
2022/07/09 01:22:01;;;;;;;;;;;15.40;99.90;;;;;;5083349;28;20279;-67
2022/07/09 01:24:27;;;;;;;;;;;15.50;99.90;;;;;;5082180;28;19991;-67
2022/07/09 01:26:55;;;;;;;;;;;15.50;99.90;;;;;;5081966;28;20213;-67
2022/07/09 01:29:21;;;;;;;;;;;15.50;99.90;;;;;;5083353;28;19920;-67
2022/07/09 01:31:48;;;;;;;;;;;15.50;99.90;;;;;;5077902;28;19952;-67
2022/07/09 01:34:15;;;;;;;;;;;15.50;99.90;;;;;;5081993;28;19929;-67
2022/07/09 01:36:41;;;;;;;;;;;15.50;99.90;;;;;;5063355;28;19987;-67
2022/07/09 01:39:09;;;;;;;;;;;15.50;99.90;;;;;;5075961;28;19947;-67
2022/07/09 01:41:36;;;;;;;;;;;15.50;99.90;;;;;;5083623;28;19920;-67
2022/07/09 01:44:03;;;;;;;;;;;15.40;99.90;;;;;;5082234;28;19928;-67
2022/07/09 01:46:29;;;;;;;;;;;15.40;99.90;;;;;;5083583;28;19952;-67
2022/07/09 01:48:56;;;;;;;;;;;15.40;99.90;;;;;;5083113;28;20123;-67
2022/07/09 01:51:22;;;;;;;;;;;15.40;99.90;;;;;;5081371;28;19951;-67
2022/07/09 01:53:49;;;;;;;;;;;15.30;99.90;;;;;;5082720;28;19920;-67
2022/07/09 01:56:17;;;;;;;;;;;15.30;99.90;;;;;;5082920;28;19971;-67
2022/07/09 01:58:44;;;;;;;;;;;15.30;99.90;;;;;;5070190;28;19927;-67
2022/07/09 02:01:12;;;;;;;;;;;15.30;99.90;;;;;;5083026;28;19927;-67
2022/07/09 02:03:38;;;;;;;;;;;15.30;99.90;;;;;;5082530;28;19996;-67
2022/07/09 02:06:05;;;;;;;;;;;15.20;99.90;;;;;;5082968;28;20275;-67
2022/07/09 02:08:32;;;;;;;;;;;15.30;99.90;;;;;;5082831;28;20218;-67
2022/07/09 02:10:58;;;;;;;;;;;15.30;99.90;;;;;;5080812;28;19950;-67
2022/07/09 02:13:26;;;;;;;;;;;15.30;99.90;;;;;;5084266;28;19976;-67
2022/07/09 02:15:54;;;;;;;;;;;15.30;99.90;;;;;;5087076;28;20146;-67
2022/07/09 02:18:20;;;;;;;;;;;15.30;99.90;;;;;;5086887;28;19935;-67
2022/07/09 02:20:47;;;;;;;;;;;15.30;99.90;;;;;;5086474;28;19927;-67
2022/07/09 02:23:14;;;;;;;;;;;15.30;99.90;;;;;;5086759;28;19963;-67
2022/07/09 02:25:40;;;;;;;;;;;15.30;99.90;;;;;;5086902;28;19956;-67
2022/07/09 02:28:07;;;;;;;;;;;15.30;99.90;;;;;;5086915;28;19983;-67
2022/07/09 02:30:36;;;;;;;;;;;15.30;99.90;;;;;;5086682;28;19951;-67
2022/07/09 02:33:03;;;;;;;;;;;15.30;99.90;;;;;;5086140;28;19924;-67
2022/07/09 02:35:30;;;;;;;;;;;15.30;99.90;;;;;;5085735;28;20224;-67
2022/07/09 02:37:57;;;;;;;;;;;15.30;99.90;;;;;;5086740;28;19920;-67
2022/07/09 02:40:24;;;;;;;;;;;15.30;99.90;;;;;;5086729;28;19974;-67
2022/07/09 02:42:50;;;;;;;;;;;15.30;99.90;;;;;;5085938;28;19995;-67
2022/07/09 02:45:17;;;;;;;;;;;15.30;99.90;;;;;;5067095;28;20116;-67
2022/07/09 02:47:45;;;;;;;;;;;15.30;99.90;;;;;;5066664;28;19987;-67
2022/07/09 02:50:11;;;;;;;;;;;15.30;99.90;;;;;;5066888;28;19952;-67
2022/07/09 02:52:38;;;;;;;;;;;15.20;99.90;;;;;;5065976;28;19963;-67
2022/07/09 02:55:05;;;;;;;;;;;15.20;99.90;;;;;;5066294;28;19921;-67
2022/07/09 02:57:32;;;;;;;;;;;15.10;99.90;;;;;;5071777;28;19921;-67
2022/07/09 02:59:59;;;;;;;;;;;15.10;99.90;;;;;;5086546;28;19920;-67
2022/07/09 03:02:25;;;;;;;;;;;15.10;99.90;;;;;;5085606;28;19920;-67
2022/07/09 03:04:53;;;;;;;;;;;15.10;99.90;;;;;;5085704;28;20371;-67
2022/07/09 03:07:20;;;;;;;;;;;15.10;99.90;;;;;;5086234;28;19979;-67
2022/07/09 03:09:47;;;;;;;;;;;15.00;99.90;;;;;;5086001;28;19979;-66
2022/07/09 03:12:13;;;;;;;;;;;15.00;99.90;;;;;;5084609;28;20176;-67
2022/07/09 03:14:40;;;;;;;;;;;15.00;99.90;;;;;;5074574;28;19920;-67
2022/07/09 03:17:06;;;;;;;;;;;15.00;99.90;;;;;;5086031;28;19955;-67
2022/07/09 03:19:33;;;;;;;;;;;15.00;99.90;;;;;;5083629;28;19921;-67
2022/07/09 03:22:01;;;;;;;;;;;15.00;99.90;;;;;;5086202;28;19995;-67
2022/07/09 03:24:28;;;;;;;;;;;15.00;99.90;;;;;;5084678;28;20276;-67
2022/07/09 03:26:54;;;;;;;;;;;15.00;99.90;;;;;;5066483;28;19984;-67
2022/07/09 03:29:21;;;;;;;;;;;15.00;99.90;;;;;;5085442;28;19926;-67
2022/07/09 03:31:48;;;;;;;;;;;15.00;99.90;;;;;;5086472;28;19920;-67
2022/07/09 03:34:14;;;;;;;;;;;15.00;99.90;;;;;;5085162;28;19951;-67
2022/07/09 03:36:42;;;;;;;;;;;15.00;99.90;;;;;;5083463;28;19927;-67
2022/07/09 03:39:10;;;;;;;;;;;15.00;99.90;;;;;;5085889;28;19955;-67
2022/07/09 03:41:37;;;;;;;;;;;15.00;99.90;;;;;;5086156;28;20446;-67
2022/07/09 03:44:04;;;;;;;;;;;15.00;99.90;;;;;;5085075;28;20220;-67
2022/07/09 03:46:31;;;;;;;;;;;15.00;99.90;;;;;;5085815;28;19988;-67
2022/07/09 03:48:58;;;;;;;;;;;15.00;99.90;;;;;;5085919;28;19920;-67
2022/07/09 03:51:24;;;;;;;;;;;15.00;99.90;;;;;;5085615;28;19988;-66
2022/07/09 03:53:53;;;;;;;;;;;15.00;99.90;;;;;;5084595;28;20397;-67
2022/07/09 03:56:21;;;;;;;;;;;14.90;99.90;;;;;;5085669;28;19986;-67
2022/07/09 03:58:47;;;;;;;;;;;14.90;99.90;;;;;;5079236;28;19952;-67
2022/07/09 04:01:14;;;;;;;;;;;14.90;99.90;;;;;;5065376;28;19920;-67
2022/07/09 04:03:41;;;;;;;;;;;14.90;99.90;;;;;;5064684;28;19956;-67
2022/07/09 04:06:07;;;;;;;;;;;14.80;99.90;;;;;;5065146;28;19956;-67
2022/07/09 04:08:34;;;;;;;;;;;14.80;99.90;;;;;;5061734;28;19929;-67
2022/07/09 04:11:01;;;;;;;;;;;14.90;99.90;;;;;;5065124;28;19956;-67
2022/07/09 04:13:29;;;;;;;;;;;14.90;99.90;;;;;;5064745;28;20112;-67
2022/07/09 04:15:56;;;;;;;;;;;14.90;99.90;;;;;;5065254;28;19959;-67
2022/07/09 04:18:22;;;;;;;;;;;15.00;99.90;;;;;;5063648;28;20244;-67
2022/07/09 04:20:49;;;;;;;;;;;15.00;99.90;;;;;;5064093;28;19984;-67
2022/07/09 04:23:15;;;;;;;;;;;15.00;99.90;;;;;;5064373;28;19983;-67
2022/07/09 04:25:45;;;;;;;;;;;15.00;99.90;;;;;;5062460;28;19992;-67
2022/07/09 04:28:12;;;;;;;;;;;15.10;99.90;;;;;;5064738;28;20205;-67
2022/07/09 04:30:40;;;;;;;;;;;15.10;99.90;;;;;;5064759;28;19928;-67
2022/07/09 04:33:07;;;;;;;;;;;15.20;99.90;;;;;;5064397;28;19921;-67
2022/07/09 04:35:35;;;;;;;;;;;15.20;99.90;;;;;;5063548;28;19928;-66
2022/07/09 04:40:38;;;;;;;;;;;15.30;99.90;;;;;;5040631;28;19958;-72
2022/07/09 04:43:05;;;;;;;;;;;15.30;99.90;;;;;;5044638;28;19921;-72
2022/07/09 04:45:32;;;;;;;;;;;15.30;99.90;;;;;;5041159;28;19984;-72
2022/07/09 04:48:00;;;;;;;;;;;15.30;99.90;;;;;;5044144;28;20226;-72
2022/07/09 04:50:27;;;;;;;;;;;15.30;99.90;;;;;;5043915;28;19981;-72
2022/07/09 04:52:53;;;;;;;;;;;15.30;99.90;;;;;;5042285;28;19986;-71
2022/07/09 04:55:21;;;;;;;;;;;15.30;99.90;;;;;;5044197;28;20003;-72
2022/07/09 04:57:47;;;;;;;;;;;15.30;99.90;;;;;;5044136;28;19928;-71
2022/07/09 05:00:15;;;;;;;;;;;15.40;99.90;;;;;;5043880;28;19921;-72
2022/07/09 05:02:42;;;;;;;;;;;15.40;99.90;;;;;;5043006;28;19984;-72
2022/07/09 05:05:11;;;;;;;;;;;15.50;99.90;;;;;;5043947;28;19980;-71
2022/07/09 05:07:37;;;;;;;;;;;15.50;99.90;;;;;;5041885;28;19928;-72
2022/07/09 05:10:04;;;;;;;;;;;15.60;99.90;;;;;;5042635;28;19989;-71
2022/07/09 05:12:31;;;;;;;;;;;15.60;99.90;;;;;;5042516;28;19956;-72
2022/07/09 05:14:58;;;;;;;;;;;15.70;99.90;;;;;;5039781;28;19983;-72
2022/07/09 05:17:25;;;;;;;;;;;15.80;99.90;;;;;;5043440;28;19921;-72
2022/07/09 05:19:51;;;;;;;;;;;15.80;99.90;;;;;;5042913;28;19928;-71
2022/07/09 05:22:19;;;;;;;;;;;15.90;99.90;;;;;;5043269;28;19952;-72
2022/07/09 05:24:46;;;;;;;;;;;15.90;99.90;;;;;;5043687;28;19988;-72
2022/07/09 05:27:13;;;;;;;;;;;16.00;99.90;;;;;;5043471;28;19928;-72
2022/07/09 05:29:39;;;;;;;;;;;16.10;99.90;;;;;;5043428;28;19928;-72
2022/07/09 05:32:07;;;;;;;;;;;16.10;99.90;;;;;;5043430;28;19921;-72
2022/07/09 05:34:33;;;;;;;;;;;16.20;99.90;;;;;;5042710;28;19947;-71
2022/07/09 05:37:00;;;;;;;;;;;16.20;99.90;;;;;;5043451;28;19988;-72
2022/07/09 05:39:28;;;;;;;;;;;16.30;99.90;;;;;;5043274;28;20233;-72
2022/07/09 05:41:54;;;;;;;;;;;16.30;99.90;;;;;;5043230;28;19989;-72
2022/07/09 05:44:21;;;;;;;;;;;16.30;99.90;;;;;;5042037;28;19959;-72
2022/07/09 05:46:48;;;;;;;;;;;16.30;99.90;;;;;;5042981;28;19921;-72
2022/07/09 05:49:14;;;;;;;;;;;16.40;99.90;;;;;;5043553;28;19928;-72
2022/07/09 05:51:41;;;;;;;;;;;16.40;99.90;;;;;;5043358;28;20176;-71
2022/07/09 05:54:07;;;;;;;;;;;16.50;99.90;;;;;;5043044;28;19959;-71
2022/07/09 05:56:36;;;;;;;;;;;16.50;99.90;;;;;;5042913;28;19929;-71
2022/07/09 05:59:03;;;;;;;;;;;16.60;99.90;;;;;;5041623;28;19988;-71
2022/07/09 06:01:30;;;;;;;;;;;16.80;99.90;;;;;;5042167;28;19922;-71
2022/07/09 06:03:56;;;;;;;;;;;17.00;99.90;;;;;;5041506;28;20267;-71
2022/07/09 06:06:23;;;;;;;;;;;17.20;99.90;;;;;;5042103;28;20251;-71
2022/07/09 06:08:50;;;;;;;;;;;17.40;99.90;;;;;;5042068;28;19988;-71
2022/07/09 06:11:17;;;;;;;;;;;17.50;99.90;;;;;;5042791;28;19988;-71
2022/07/09 06:13:45;;;;;;;;;;;17.50;99.90;;;;;;5042193;28;19965;-75
2022/07/09 06:16:11;;;;;;;;;;;17.70;99.90;;;;;;5043025;28;19996;-70
2022/07/09 06:18:38;;;;;;;;;;;17.70;99.90;;;;;;5043007;28;19992;-70
2022/07/09 06:21:05;;;;;;;;;;;17.80;99.90;;;;;;5043108;28;19921;-71
2022/07/09 06:23:31;;;;;;;;;;;17.90;99.90;;;;;;5042512;28;19960;-71
2022/07/09 06:25:58;;;;;;;;;;;17.90;99.90;;;;;;5043064;28;19984;-72
2022/07/09 06:28:24;;;;;;;;;;;18.00;99.90;;;;;;5042443;28;19955;-71
2022/07/09 06:30:52;;;;;;;;;;;18.00;99.90;;;;;;5042797;28;19921;-71
2022/07/09 06:33:19;;;;;;;;;;;18.10;99.90;;;;;;5042449;28;20223;-71
2022/07/09 06:35:46;;;;;;;;;;;18.20;99.90;;;;;;5043093;28;19988;-71
2022/07/09 06:38:12;;;;;;;;;;;18.30;99.90;;;;;;5042901;28;19921;-71
2022/07/09 06:40:39;;;;;;;;;;;18.30;99.90;;;;;;5042282;28;19960;-71
2022/07/09 06:43:07;;;;;;;;;;;18.30;99.90;;;;;;5041225;28;19928;-71
2022/07/09 06:45:33;;;;;;;;;;;18.40;99.90;;;;;;5042993;28;20183;-71
2022/07/09 06:48:01;;;;;;;;;;;18.50;99.90;;;;;;5043031;28;20120;-71
2022/07/09 06:50:28;;;;;;;;;;;18.60;99.90;;;;;;5043266;28;19959;-71
2022/07/09 06:53:01;;;;;;;;;;;18.60;99.90;;;;;;5041151;28;19979;-72
2022/07/09 06:55:28;;;;;;;;;;;18.60;99.90;;;;;;5043253;28;20000;-72
2022/07/09 06:57:54;;;;;;;;;;;18.70;99.90;;;;;;5043106;28;19921;-71
2022/07/09 07:00:23;;;;;;;;;;;18.80;99.90;;;;;;5046207;28;19921;-72
2022/07/09 07:02:50;;;;;;;;;;;18.80;99.90;;;;;;5045638;28;19921;-71
2022/07/09 07:05:18;;;;;;;;;;;18.90;99.90;;;;;;5046145;28;19921;-71
2022/07/09 07:07:44;;;;;;;;;;;18.90;99.90;;;;;;5046132;28;19928;-71
2022/07/09 07:10:11;;;;;;;;;;;19.00;99.90;;;;;;5046105;28;19960;-71
2022/07/09 07:12:38;;;;;;;;;;;19.10;99.90;;;;;;5045030;28;20214;-72
2022/07/09 07:15:05;;;;;;;;;;;19.20;99.90;;;;;;5045900;28;20212;-71
2022/07/09 07:17:32;;;;;;;;;;;19.40;99.90;;;;;;5046466;28;19921;-71
2022/07/09 07:19:59;;;;;;;;;;;19.50;99.90;;;;;;5046250;28;19928;-71
2022/07/09 07:22:27;;;;;;;;;;;19.50;99.90;;;;;;5045811;28;19964;-72
2022/07/09 07:24:53;;;;;;;;;;;19.70;99.90;;;;;;5046134;28;19952;-71
2022/07/09 07:27:20;;;;;;;;;;;19.80;99.90;;;;;;5046581;28;19953;-72
2022/07/09 07:29:47;;;;;;;;;;;19.90;99.90;;;;;;5045770;28;19967;-71
2022/07/09 07:32:13;;;;;;;;;;;20.00;99.90;;;;;;5045070;28;19921;-75
2022/07/09 07:34:40;;;;;;;;;;;20.10;99.90;;;;;;5045565;28;20035;-71
2022/07/09 07:37:07;;;;;;;;;;;20.20;99.90;;;;;;5045894;28;20188;-70
2022/07/09 07:39:35;;;;;;;;;;;20.20;99.90;;;;;;5045452;28;19948;-71
2022/07/09 07:42:01;;;;;;;;;;;20.20;99.90;;;;;;5045204;28;19992;-70
2022/07/09 07:44:29;;;;;;;;;;;20.20;99.90;;;;;;5041769;28;20000;-69
2022/07/09 07:46:56;;;;;;;;;;;20.30;99.90;;;;;;5045758;28;20094;-70
2022/07/09 07:49:29;;;;;;;;;;;20.30;99.90;;;;;;5044349;28;19984;-71
2022/07/09 07:51:55;;;;;;;;;;;20.30;99.90;;;;;;5045647;28;19956;-71
2022/07/09 07:54:22;;;;;;;;;;;20.30;99.90;;;;;;5045380;28;19921;-71
2022/07/09 07:56:51;;;;;;;;;;;20.40;99.90;;;;;;5045358;28;19984;-70
2022/07/09 07:59:18;;;;;;;;;;;20.50;99.90;;;;;;5038784;28;19979;-71
2022/07/09 08:01:44;;;;;;;;;;;20.60;99.90;;;;;;5042591;28;20239;-71
2022/07/09 08:04:11;;;;;;;;;;;20.70;99.90;;;;;;5044149;28;19984;-71
2022/07/09 08:06:38;;;;;;;;;;;20.70;99.90;;;;;;5041679;28;19929;-70
2022/07/09 08:09:04;;;;;;;;;;;20.80;99.90;;;;;;5042206;28;19921;-71
2022/07/09 08:11:31;;;;;;;;;;;20.90;99.90;;;;;;5042432;28;19921;-71
2022/07/09 08:13:59;;;;;;;;;;;21.00;99.90;;;;;;5044508;28;19928;-70
2022/07/09 08:16:26;;;;;;;;;;;21.10;99.90;;;;;;5044679;28;19959;-71
2022/07/09 08:18:52;;;;;;;;;;;21.10;99.90;;;;;;5045002;28;19921;-71
2022/07/09 08:21:19;;;;;;;;;;;21.10;99.90;;;;;;5044843;28;19967;-71
2022/07/09 08:23:55;;;;;;;;;;;21.10;99.90;;;;;;5044339;28;19928;-71
2022/07/09 08:26:23;;;;;;;;;;;21.10;99.90;;;;;;5042971;28;20314;-71
2022/07/09 08:28:49;;;;;;;;;;;21.00;99.90;;;;;;5045369;28;19996;-71
2022/07/09 08:31:18;;;;;;;;;;;21.10;99.90;;;;;;5039123;28;19961;-71
2022/07/09 08:33:45;;;;;;;;;;;21.10;99.90;;;;;;5043998;28;20223;-71
2022/07/09 08:36:11;;;;;;;;;;;21.10;99.90;;;;;;5043909;28;19921;-71
2022/07/09 08:38:38;;;;;;;;;;;21.10;99.90;;;;;;5040280;28;19992;-72
2022/07/09 08:41:05;;;;;;;;;;;21.20;99.90;;;;;;5053863;28;19921;-71
2022/07/09 08:43:33;;;;;;;;;;;21.20;99.90;;;;;;5059995;28;19960;-71
2022/07/09 08:46:00;;;;;;;;;;;21.10;99.90;;;;;;5042123;28;19992;-71
2022/07/09 08:48:28;;;;;;;;;;;21.10;99.90;;;;;;5054495;28;20105;-71
2022/07/09 08:50:54;;;;;;;;;;;21.10;99.90;;;;;;5043392;28;19983;-71
2022/07/09 08:53:21;;;;;;;;;;;21.10;99.90;;;;;;5043737;28;19952;-70
2022/07/09 08:55:50;;;;;;;;;;;21.10;99.90;;;;;;5040460;28;19921;-71
2022/07/09 08:58:17;;;;;;;;;;;21.20;99.90;;;;;;5042555;28;20251;-71
2022/07/09 09:00:43;;;;;;;;;;;21.20;99.90;;;;;;5044028;28;19976;-70
2022/07/09 09:03:10;;;;;;;;;;;21.20;99.90;;;;;;5050959;28;19976;-70
2022/07/09 09:05:38;;;;;;;;;;;21.20;99.90;;;;;;5051353;28;19988;-72
2022/07/09 09:08:17;;;;;;;;;;;21.10;99.90;;;;;;5044463;28;19959;-70
2022/07/09 09:10:46;;;;;;;;;;;21.10;99.90;;;;;;5043790;28;20174;-70
2022/07/09 09:13:14;;;;;;;;;;;21.10;99.90;;;;;;5040068;28;19925;-70
2022/07/09 09:15:41;;;;;;;;;;;21.10;99.90;;;;;;5024508;28;19989;-72
2022/07/09 09:18:08;;;;;;;;;;;21.00;99.90;;;;;;5024825;28;19921;-71
2022/07/09 09:20:36;;;;;;;;;;;21.00;99.90;;;;;;5024399;28;19922;-70
2022/07/09 09:23:09;;;;;;;;;;;21.00;99.90;;;;;;5022992;28;19921;-70
2022/07/09 09:25:36;;;;;;;;;;;21.00;99.90;;;;;;5043238;28;19921;-70
2022/07/09 09:28:03;;;;;;;;;;;21.00;99.90;;;;;;5042955;28;20217;-70
2022/07/09 09:30:30;;;;;;;;;;;21.00;99.90;;;;;;5043472;28;19928;-70
2022/07/09 09:32:58;;;;;;;;;;;21.00;99.90;;;;;;5043008;28;19964;-70
2022/07/09 09:35:25;;;;;;;;;;;21.10;99.90;;;;;;5038925;28;19936;-71
2022/07/09 09:37:51;;;;;;;;;;;21.10;99.90;;;;;;5044564;28;20292;-70
2022/07/09 09:40:19;;;;;;;;;;;21.10;99.90;;;;;;5042887;28;19980;-70
2022/07/09 09:42:46;;;;;;;;;;;21.20;99.90;;;;;;5042215;28;19921;-72
2022/07/09 09:45:13;;;;;;;;;;;21.30;99.90;;;;;;5057166;28;19996;-69
2022/07/09 09:47:40;;;;;;;;;;;21.30;99.90;;;;;;5051293;28;19921;-72
2022/07/09 09:50:13;;;;;;;;;;;21.30;99.90;;;;;;5045769;28;20204;-69
2022/07/09 09:52:40;;;;;;;;;;;21.30;99.90;;;;;;5042630;28;19929;-70
2022/07/09 09:55:07;;;;;;;;;;;21.30;99.90;;;;;;5053889;28;19983;-70
2022/07/09 09:57:37;;;;;;;;;;;21.30;99.90;;;;;;5042938;28;19988;-70
2022/07/09 10:00:04;;;;;;;;;;;21.40;99.90;;;;;;5039696;28;19996;-70
2022/07/09 10:02:31;;;;;;;;;;;21.40;99.90;;;;;;5040601;28;20224;-70
2022/07/09 10:04:58;;;;;;;;;;;21.40;99.90;;;;;;5040931;28;19929;-70
2022/07/09 10:07:24;;;;;;;;;;;21.50;99.90;;;;;;5043220;28;19988;-70
2022/07/09 10:09:54;;;;;;;;;;;21.60;99.90;;;;;;5043116;28;19960;-70
2022/07/09 10:12:26;;;;;;;;;;;21.60;99.90;;;;;;5042559;28;19983;-72
2022/07/09 10:14:54;;;;;;;;;;;21.80;99.90;;;;;;5043286;28;19975;-70
2022/07/09 10:17:21;;;;;;;;;;;21.90;99.90;;;;;;5042932;28;19921;-70
2022/07/09 10:19:52;;;;;;;;;;;21.90;99.90;;;;;;5042491;28;19952;-70
2022/07/09 10:22:18;;;;;;;;;;;21.90;99.90;;;;;;5042496;28;19974;-71
2022/07/09 10:24:45;;;;;;;;;;;22.00;99.90;;;;;;5032308;28;19995;-70
2022/07/09 10:27:12;;;;;;;;;;;22.00;99.90;;;;;;5042873;28;20016;-70
2022/07/09 10:29:53;;;;;;;;;;;22.00;99.90;;;;;;5042885;28;20255;-70
2022/07/09 10:32:24;;;;;;;;;;;21.90;99.90;;;;;;5042322;28;19988;-70
2022/07/09 10:34:55;;;;;;;;;;;21.80;99.90;;;;;;5045663;28;19933;-70
2022/07/09 10:37:31;;;;;;;;;;;21.70;99.90;;;;;;5046897;28;19964;-71
2022/07/09 10:40:05;;;;;;;;;;;21.70;99.90;;;;;;5047057;28;19927;-71
2022/07/09 10:42:33;;;;;;;;;;;21.60;99.90;;;;;;5042360;28;19975;-70
2022/07/09 10:45:00;;;;;;;;;;;21.60;99.90;;;;;;5045842;28;20000;-71
2022/07/09 10:47:38;;;;;;;;;;;21.60;99.90;;;;;;5026706;28;19928;-72
2022/07/09 10:50:06;;;;;;;;;;;21.50;99.90;;;;;;5041661;28;19925;-70
2022/07/09 10:52:33;;;;;;;;;;;21.50;99.90;;;;;;5045631;28;20170;-71
2022/07/09 10:54:59;;;;;;;;;;;21.40;99.90;;;;;;5043775;28;19988;-70
2022/07/09 10:57:26;;;;;;;;;;;21.40;99.90;;;;;;5046943;28;19928;-70
2022/07/09 10:59:53;;;;;;;;;;;21.40;99.90;;;;;;5046541;28;19929;-70
2022/07/09 11:02:20;;;;;;;;;;;21.40;99.90;;;;;;5046104;28;20175;-70
2022/07/09 11:04:51;;;;;;;;;;;21.40;99.90;;;;;;5046520;28;19927;-70
2022/07/09 11:07:21;;;;;;;;;;;21.40;99.90;;;;;;5046688;28;19925;-70
2022/07/09 11:09:48;;;;;;;;;;;21.30;99.90;;;;;;5049597;28;19928;-71
2022/07/09 11:12:15;;;;;;;;;;;21.30;99.90;;;;;;5045702;28;19949;-71
2022/07/09 11:14:44;;;;;;;;;;;21.20;99.90;;;;;;5043253;28;19996;-69
2022/07/09 11:17:15;;;;;;;;;;;21.20;99.90;;;;;;5044525;28;20112;-70
2022/07/09 11:19:41;;;;;;;;;;;21.10;99.90;;;;;;5046640;28;20012;-70
2022/07/09 11:22:09;;;;;;;;;;;21.10;99.90;;;;;;5045545;28;19928;-72
2022/07/09 11:24:36;;;;;;;;;;;21.10;99.90;;;;;;5046078;28;19996;-70
2022/07/09 11:27:03;;;;;;;;;;;21.10;99.90;;;;;;5044694;28;19952;-72
2022/07/09 11:29:30;;;;;;;;;;;21.20;99.90;;;;;;5046143;28;19921;-69
2022/07/09 11:31:57;;;;;;;;;;;21.20;99.90;;;;;;5046153;28;19921;-72
2022/07/09 11:34:23;;;;;;;;;;;21.20;99.90;;;;;;5045701;28;19929;-69
2022/07/09 11:36:51;;;;;;;;;;;21.20;99.90;;;;;;5046213;28;19990;-71
2022/07/09 11:39:26;;;;;;;;;;;21.20;99.90;;;;;;5045915;28;19956;-71
2022/07/09 11:41:53;;;;;;;;;;;21.20;99.90;;;;;;5046195;28;19958;-71
2022/07/09 11:44:21;;;;;;;;;;;21.20;99.90;;;;;;5044806;28;19944;-72
2022/07/09 11:46:57;;;;;;;;;;;21.20;99.90;;;;;;5045896;28;19936;-71
2022/07/09 11:49:32;;;;;;;;;;;21.30;99.90;;;;;;5045976;28;19988;-71
2022/07/09 11:51:58;;;;;;;;;;;21.40;99.90;;;;;;5045986;28;19928;-70
2022/07/09 11:54:35;;;;;;;;;;;21.50;99.90;;;;;;5043290;28;19921;-71
2022/07/09 11:57:01;;;;;;;;;;;21.50;99.90;;;;;;5045631;28;19928;-70
2022/07/09 11:59:31;;;;;;;;;;;21.60;99.90;;;;;;5045166;28;19953;-70
2022/07/09 12:02:02;;;;;;;;;;;21.70;99.90;;;;;;5045745;28;19925;-69
2022/07/09 12:04:30;;;;;;;;;;;21.60;99.90;;;;;;5044850;28;19921;-70
2022/07/09 12:06:57;;;;;;;;;;;21.60;99.90;;;;;;5045264;28;20119;-70
2022/07/09 12:09:31;;;;;;;;;;;21.50;99.90;;;;;;5045104;28;19953;-70
2022/07/09 12:11:59;;;;;;;;;;;21.40;99.90;;;;;;5045127;28;20012;-70
2022/07/09 12:14:26;;;;;;;;;;;21.50;99.90;;;;;;5044814;28;19949;-70
2022/07/09 12:16:52;;;;;;;;;;;21.50;99.90;;;;;;5045313;28;19952;-70
2022/07/09 12:19:19;;;;;;;;;;;21.60;99.90;;;;;;5045114;28;20208;-70
2022/07/09 12:21:46;;;;;;;;;;;21.80;99.90;;;;;;5045166;28;19953;-70
2022/07/09 12:24:12;;;;;;;;;;;22.10;99.90;;;;;;5044648;28;19992;-70
2022/07/09 12:26:39;;;;;;;;;;;22.60;99.90;;;;;;5045117;28;20135;-70
2022/07/09 12:29:07;;;;;;;;;;;23.10;99.90;;;;;;5044723;28;20226;-70
2022/07/09 12:31:36;;;;;;;;;;;23.50;99.90;;;;;;5044883;28;20287;-69
2022/07/09 12:34:03;;;;;;;;;;;23.90;99.90;;;;;;5044648;28;19921;-70
2022/07/09 12:36:29;;;;;;;;;;;24.20;99.90;;;;;;5035635;28;19992;-70
2022/07/09 12:38:56;;;;;;;;;;;24.30;99.90;;;;;;5025071;28;20117;-70
2022/07/09 12:41:23;;;;;;;;;;;24.40;99.90;;;;;;5025263;28;19921;-70
2022/07/09 12:43:49;;;;;;;;;;;24.40;99.90;;;;;;5040018;28;19988;-70
2022/07/09 12:46:17;;;;;;;;;;;24.30;99.90;;;;;;5044620;28;19928;-70
2022/07/09 12:48:44;;;;;;;;;;;24.30;99.90;;;;;;5044719;28;19988;-70
2022/07/09 12:51:10;;;;;;;;;;;24.30;99.90;;;;;;5044547;28;20175;-70
2022/07/09 12:53:37;;;;;;;;;;;24.50;99.90;;;;;;5043907;28;19960;-69
2022/07/09 12:56:04;;;;;;;;;;;24.50;99.90;;;;;;5043891;28;19952;-70
2022/07/09 12:58:31;;;;;;;;;;;24.60;99.90;;;;;;5044157;28;19928;-70
2022/07/09 13:00:58;;;;;;;;;;;24.70;99.90;;;;;;5044391;28;19928;-70
2022/07/09 13:03:26;;;;;;;;;;;24.80;99.90;;;;;;5043361;28;19921;-70
2022/07/09 13:05:53;;;;;;;;;;;25.00;99.90;;;;;;5043917;28;19963;-70
2022/07/09 13:08:19;;;;;;;;;;;25.00;99.90;;;;;;5044054;28;20209;-70
2022/07/09 13:10:46;;;;;;;;;;;24.80;99.90;;;;;;5044075;28;20228;-70
2022/07/09 13:13:13;;;;;;;;;;;24.50;99.90;;;;;;5043390;28;20251;-71
2022/07/09 13:15:39;;;;;;;;;;;24.30;99.90;;;;;;5043974;28;19921;-70
2022/07/09 13:18:06;;;;;;;;;;;24.00;99.90;;;;;;5044116;28;19921;-69
2022/07/09 13:20:34;;;;;;;;;;;23.70;99.90;;;;;;5043877;28;20239;-70
2022/07/09 13:23:00;;;;;;;;;;;23.50;99.90;;;;;;5043615;28;20166;-69
2022/07/09 13:25:27;;;;;;;;;;;23.30;99.90;;;;;;5043630;28;19927;-70
2022/07/09 13:27:54;;;;;;;;;;;23.10;99.90;;;;;;5044118;28;19921;-70
2022/07/09 13:30:21;;;;;;;;;;;23.00;99.90;;;;;;5044029;28;19963;-70
2022/07/09 13:32:48;;;;;;;;;;;22.90;99.90;;;;;;5043377;28;19920;-70
2022/07/09 13:35:15;;;;;;;;;;;22.70;99.90;;;;;;5043447;28;19956;-70
2022/07/09 13:37:43;;;;;;;;;;;22.60;99.90;;;;;;5043785;28;19921;-70
2022/07/09 13:40:10;;;;;;;;;;;22.40;99.90;;;;;;5043369;28;19956;-70
2022/07/09 13:42:37;;;;;;;;;;;22.30;99.90;;;;;;5042753;28;20176;-70
2022/07/09 13:45:04;;;;;;;;;;;22.30;99.90;;;;;;5043423;28;19988;-71
2022/07/09 13:47:31;;;;;;;;;;;22.30;99.90;;;;;;5043502;28;19921;-72
2022/07/09 13:49:57;;;;;;;;;;;22.40;99.90;;;;;;5043213;28;19988;-72
2022/07/09 13:52:24;;;;;;;;;;;22.50;99.90;;;;;;5042480;28;19953;-69
2022/07/09 13:54:52;;;;;;;;;;;22.60;99.90;;;;;;5045923;28;19952;-69
2022/07/09 13:57:18;;;;;;;;;;;23.00;99.90;;;;;;5043152;28;19921;-69
2022/07/09 13:59:45;;;;;;;;;;;23.50;99.90;;;;;;5043070;28;19956;-69
2022/07/09 14:02:12;;;;;;;;;;;23.70;99.90;;;;;;5042669;28;20124;-70
2022/07/09 14:04:38;;;;;;;;;;;23.80;99.90;;;;;;5042557;28;19968;-70
2022/07/09 14:07:05;;;;;;;;;;;23.70;99.90;;;;;;5043169;28;19928;-70
2022/07/09 14:09:32;;;;;;;;;;;23.70;99.90;;;;;;5047067;28;20016;-70
2022/07/09 14:12:00;;;;;;;;;;;23.60;99.90;;;;;;5046995;28;19952;-70
2022/07/09 14:14:26;;;;;;;;;;;23.50;99.90;;;;;;5046624;28;19952;-70
2022/07/09 14:16:53;;;;;;;;;;;23.50;99.90;;;;;;5046770;28;19921;-70
2022/07/09 14:19:20;;;;;;;;;;;23.40;99.90;;;;;;5046878;28;19921;-70